Time;durP1;ratioP1;P1;durP2;ratioP2;P2;SDS_P1;SDS_P2;PMS_P1;PMS_P2;Temp;Humidity;BMP_temperature;BMP_pressure;BME280_temperature;BME280_humidity;BME280_pressure;Samples;Min_cycle;Max_cycle;Signal;HPM_P1;HPM_P2
2024/02/02 00:00:27;;;;;;;5.15;4.28;;;4.70;80.70;;;;;;5017004;28;20026;-78
2024/02/02 00:02:53;;;;;;;6.00;3.67;;;4.70;80.90;;;;;;5017194;28;20109;-80
2024/02/02 00:05:18;;;;;;;5.78;4.13;;;4.60;80.80;;;;;;5017147;28;20025;-81
2024/02/02 00:07:44;;;;;;;4.75;3.67;;;4.60;80.90;;;;;;5017463;28;20030;-81
2024/02/02 00:10:09;;;;;;;7.80;4.65;;;4.70;80.90;;;;;;5022192;28;20025;-79
2024/02/02 00:12:35;;;;;;;7.15;3.60;;;4.60;80.80;;;;;;5024539;28;20399;-81
2024/02/02 00:15:02;;;;;;;6.07;4.10;;;4.70;80.60;;;;;;5017260;28;20481;-79
2024/02/02 00:17:28;;;;;;;6.13;4.13;;;4.70;80.30;;;;;;5016970;28;20025;-80
2024/02/02 00:19:54;;;;;;;9.02;4.68;;;4.60;80.00;;;;;;5016766;28;20025;-79
2024/02/02 00:22:22;;;;;;;7.97;4.15;;;4.60;79.90;;;;;;5016834;28;20029;-81
2024/02/02 00:24:47;;;;;;;7.03;4.15;;;4.50;79.60;;;;;;5016434;28;20031;-80
2024/02/02 00:27:14;;;;;;;4.38;3.50;;;4.40;80.70;;;;;;5016578;28;20029;-79
2024/02/02 00:29:42;;;;;;;7.00;4.93;;;4.40;80.00;;;;;;5016206;28;20021;-81
2024/02/02 00:32:07;;;;;;;6.70;4.90;;;4.50;80.10;;;;;;5016105;28;20042;-79
2024/02/02 00:34:33;;;;;;;14.18;9.20;;;4.40;80.00;;;;;;5016286;28;20080;-81
2024/02/02 00:37:00;;;;;;;18.13;10.98;;;4.40;80.10;;;;;;5016079;28;20048;-81
2024/02/02 00:39:27;;;;;;;10.10;8.05;;;4.40;80.20;;;;;;5016173;28;20025;-80
2024/02/02 00:41:52;;;;;;;8.85;6.35;;;4.40;80.20;;;;;;5016356;28;20064;-79
2024/02/02 00:44:18;;;;;;;7.25;5.65;;;4.40;80.20;;;;;;5015585;28;20063;-81
2024/02/02 00:46:43;;;;;;;6.80;5.05;;;4.20;80.20;;;;;;5016405;28;20029;-82
2024/02/02 00:49:09;;;;;;;8.93;5.35;;;4.20;80.30;;;;;;5016202;28;20120;-80
2024/02/02 00:51:34;;;;;;;7.20;4.90;;;4.20;80.40;;;;;;5016389;28;20044;-81
2024/02/02 00:54:00;;;;;;;7.35;4.72;;;4.20;80.50;;;;;;4999631;28;20040;-79
2024/02/02 00:56:26;;;;;;;5.50;4.82;;;4.20;80.50;;;;;;5015906;28;20029;-81
2024/02/02 00:58:51;;;;;;;6.97;4.80;;;4.20;80.40;;;;;;5015522;28;20025;-79
2024/02/02 01:01:18;;;;;;;5.65;4.07;;;4.20;80.40;;;;;;5016116;28;20018;-78
2024/02/02 01:03:45;;;;;;;4.57;3.47;;;4.20;80.50;;;;;;5015559;28;20521;-79
2024/02/02 01:06:11;;;;;;;6.88;5.03;;;4.20;80.40;;;;;;5015883;28;20532;-79
2024/02/02 01:08:36;;;;;;;4.80;3.90;;;4.20;80.30;;;;;;5015793;28;20026;-79
2024/02/02 01:11:02;;;;;;;5.43;3.92;;;4.20;80.20;;;;;;5015922;28;20026;-79
2024/02/02 01:13:27;;;;;;;5.13;3.92;;;4.20;80.20;;;;;;5015800;28;20409;-80
2024/02/02 01:15:53;;;;;;;5.97;4.38;;;4.20;80.30;;;;;;5033327;28;20021;-79
2024/02/02 01:18:19;;;;;;;5.95;4.75;;;4.10;80.20;;;;;;5015694;28;20521;-79
2024/02/02 01:20:44;;;;;;;5.22;4.13;;;4.10;80.40;;;;;;5015597;28;20083;-78
2024/02/02 01:23:10;;;;;;;5.60;3.80;;;4.10;80.30;;;;;;5015245;28;20026;-78
2024/02/02 01:25:35;;;;;;;5.50;3.90;;;4.10;80.20;;;;;;5015560;28;20060;-78
2024/02/02 01:28:01;;;;;;;5.47;4.28;;;4.10;80.20;;;;;;5015682;28;20446;-78
2024/02/02 01:30:29;;;;;;;7.43;4.55;;;4.10;80.20;;;;;;5015451;28;20028;-78
2024/02/02 01:32:55;;;;;;;7.70;4.38;;;4.20;80.40;;;;;;5015573;28;20133;-78
2024/02/02 01:35:21;;;;;;;5.75;4.07;;;4.20;80.40;;;;;;5015630;28;20033;-78
2024/02/02 01:37:47;;;;;;;7.20;4.03;;;4.20;80.60;;;;;;5034154;28;20060;-78
2024/02/02 01:40:13;;;;;;;5.55;3.72;;;4.20;80.80;;;;;;5016623;28;20037;-79
2024/02/02 01:42:40;;;;;;;6.22;3.78;;;4.20;80.90;;;;;;5028592;28;20072;-79
2024/02/02 01:45:06;;;;;;;7.50;3.63;;;4.20;81.10;;;;;;5015083;28;20033;-80
2024/02/02 01:47:32;;;;;;;7.15;4.00;;;4.20;81.30;;;;;;5015235;28;20029;-81
2024/02/02 01:49:59;;;;;;;6.45;3.97;;;4.20;81.60;;;;;;5015797;28;20032;-80
2024/02/02 01:52:25;;;;;;;7.07;5.05;;;4.20;81.90;;;;;;4999436;28;20429;-82
2024/02/02 01:54:51;;;;;;;6.60;5.07;;;4.30;82.10;;;;;;5017661;28;20029;-82
2024/02/02 01:57:16;;;;;;;5.88;4.97;;;4.30;82.10;;;;;;5019601;28;20032;-79
2024/02/02 01:59:42;;;;;;;9.23;5.30;;;4.40;82.00;;;;;;5003169;28;20037;-81
2024/02/02 02:02:08;;;;;;;7.63;5.25;;;4.40;82.30;;;;;;5036999;28;20031;-78
2024/02/02 02:04:34;;;;;;;8.50;5.68;;;4.40;82.60;;;;;;5019300;28;20063;-78
2024/02/02 02:07:02;;;;;;;7.05;4.93;;;4.40;83.80;;;;;;5037292;28;20013;-79
2024/02/02 02:09:29;;;;;;;8.25;5.05;;;4.40;82.90;;;;;;5019273;28;20021;-78
2024/02/02 02:11:55;;;;;;;8.65;4.90;;;4.50;82.90;;;;;;5018615;28;20045;-81
2024/02/02 02:14:21;;;;;;;7.97;4.70;;;4.50;82.90;;;;;;5018725;28;20040;-80
2024/02/02 02:16:50;;;;;;;7.40;5.43;;;4.50;82.60;;;;;;5019016;28;20025;-79
2024/02/02 02:19:16;;;;;;;7.53;5.53;;;4.50;82.70;;;;;;5018896;28;20029;-82
2024/02/02 02:21:41;;;;;;;7.72;4.80;;;4.50;82.80;;;;;;5018640;28;20509;-81
2024/02/02 02:24:08;;;;;;;7.57;4.63;;;4.50;83.00;;;;;;5018681;28;20029;-81
2024/02/02 02:26:34;;;;;;;6.22;4.90;;;4.50;82.90;;;;;;5019070;28;20430;-81
2024/02/02 02:29:01;;;;;;;6.82;5.05;;;4.50;83.10;;;;;;5018308;28;20030;-82
2024/02/02 02:31:27;;;;;;;6.57;5.05;;;4.50;83.00;;;;;;5002262;28;20112;-81
2024/02/02 02:33:54;;;;;;;7.72;4.57;;;4.50;82.80;;;;;;5019918;28;20068;-80
2024/02/02 02:36:22;;;;;;;6.90;5.22;;;4.50;82.90;;;;;;5019623;28;20506;-81
2024/02/02 02:38:48;;;;;;;7.07;4.45;;;4.60;83.80;;;;;;5019407;28;20385;-81
2024/02/02 02:41:16;;;;;;;5.85;4.63;;;4.60;82.90;;;;;;5018593;28;20034;-82
2024/02/02 02:43:41;;;;;;;6.40;4.75;;;4.60;82.70;;;;;;5018840;28;20530;-81
2024/02/02 02:46:08;;;;;;;5.53;4.45;;;4.60;82.60;;;;;;5036514;28;20025;-82
2024/02/02 02:48:38;;;;;;;6.65;5.43;;;4.60;82.60;;;;;;5019256;28;20025;-81
2024/02/02 02:51:04;;;;;;;8.20;6.07;;;4.60;82.80;;;;;;5019081;28;20022;-81
2024/02/02 02:53:30;;;;;;;7.25;5.13;;;4.70;83.20;;;;;;5002637;28;20038;-82
2024/02/02 02:55:56;;;;;;;5.82;3.50;;;4.60;83.00;;;;;;5018988;28;20474;-80
2024/02/02 02:58:22;;;;;;;7.85;4.45;;;4.60;83.00;;;;;;5018413;28;20382;-82
2024/02/02 03:00:48;;;;;;;7.65;4.55;;;4.60;83.10;;;;;;5018522;28;20026;-83
2024/02/02 03:03:13;;;;;;;6.95;3.97;;;4.70;83.60;;;;;;5018474;28;20421;-82
2024/02/02 03:05:39;;;;;;;6.53;3.90;;;4.70;83.80;;;;;;5018429;28;20044;-82
2024/02/02 03:08:08;;;;;;;6.72;5.47;;;4.70;83.80;;;;;;5017557;28;20068;-83
2024/02/02 03:10:34;;;;;;;5.78;4.55;;;4.70;83.80;;;;;;5018397;28;20017;-83
2024/02/02 03:12:59;;;;;;;6.93;4.47;;;4.70;83.80;;;;;;5009775;28;20497;-82
2024/02/02 03:15:25;;;;;;;7.20;4.43;;;4.70;83.80;;;;;;5018263;28;20021;-82
2024/02/02 03:17:53;;;;;;;6.90;4.40;;;4.80;83.70;;;;;;5018103;28;20025;-82
2024/02/02 03:20:18;;;;;;;5.82;3.80;;;4.80;83.60;;;;;;5017994;28;20382;-83
2024/02/02 03:22:44;;;;;;;7.90;4.38;;;4.70;83.50;;;;;;5018153;28;20029;-83
2024/02/02 03:25:11;;;;;;;7.15;3.72;;;4.80;83.60;;;;;;5017968;28;20069;-83
2024/02/02 03:27:37;;;;;;;7.60;5.00;;;4.80;83.70;;;;;;5017479;28;20030;-83
2024/02/02 03:30:04;;;;;;;6.18;4.30;;;4.80;83.50;;;;;;5017813;28;20029;-82
2024/02/02 03:32:30;;;;;;;5.78;4.97;;;4.90;83.30;;;;;;5017943;28;20026;-83
2024/02/02 03:34:55;;;;;;;6.70;4.28;;;4.90;83.10;;;;;;5017629;28;20041;-83
2024/02/02 03:37:21;;;;;;;7.57;5.38;;;4.80;83.00;;;;;;5017637;28;20132;-84
2024/02/02 03:39:48;;;;;;;7.60;4.95;;;4.80;82.90;;;;;;5017870;28;20033;-83
2024/02/02 03:42:15;;;;;;;7.32;4.78;;;4.80;82.90;;;;;;5017767;28;20023;-83
2024/02/02 03:44:41;;;;;;;6.20;4.32;;;4.80;82.90;;;;;;5016962;28;20056;-82
2024/02/02 03:47:06;;;;;;;8.50;4.82;;;4.80;82.80;;;;;;5017457;28;20069;-83
2024/02/02 03:49:34;;;;;;;8.10;4.20;;;4.80;82.70;;;;;;5017386;28;20026;-82
2024/02/02 03:52:01;;;;;;;7.53;4.65;;;4.90;82.80;;;;;;5014571;28;20388;-83
2024/02/02 03:54:27;;;;;;;6.47;4.50;;;4.90;82.80;;;;;;5030853;28;20056;-84
2024/02/02 03:56:54;;;;;;;7.13;4.22;;;4.90;82.80;;;;;;5017244;28;20021;-83
2024/02/02 03:59:19;;;;;;;5.57;4.13;;;4.90;82.90;;;;;;5016867;28;20029;-84
2024/02/02 04:01:45;;;;;;;5.10;4.60;;;4.90;83.00;;;;;;5017244;28;20029;-83
2024/02/02 04:04:10;;;;;;;6.22;4.93;;;4.90;82.90;;;;;;5017184;28;20026;-83
2024/02/02 04:06:36;;;;;;;5.25;4.55;;;4.90;82.90;;;;;;5016676;28;20061;-83
2024/02/02 04:09:03;;;;;;;7.13;5.03;;;4.90;83.00;;;;;;5017373;28;20022;-83
2024/02/02 04:11:29;;;;;;;6.22;4.65;;;4.90;82.90;;;;;;5017086;28;20021;-82
2024/02/02 04:13:55;;;;;;;8.90;4.82;;;4.90;82.80;;;;;;5016575;28;20395;-83
2024/02/02 04:16:20;;;;;;;6.57;5.13;;;4.90;82.90;;;;;;5016974;28;20112;-83
2024/02/02 04:18:46;;;;;;;7.13;4.95;;;5.00;82.90;;;;;;5016024;28;20040;-83
2024/02/02 04:21:12;;;;;;;9.57;5.25;;;5.00;83.00;;;;;;5016785;28;20363;-82
2024/02/02 04:23:37;;;;;;;9.73;5.70;;;5.00;83.80;;;;;;4999932;28;20026;-81
2024/02/02 04:26:04;;;;;;;5.13;4.30;;;5.00;82.90;;;;;;5016736;28;20466;-83
2024/02/02 04:28:30;;;;;;;9.70;5.10;;;5.00;83.00;;;;;;5016623;28;20048;-83
2024/02/02 04:30:56;;;;;;;9.35;6.22;;;5.00;83.00;;;;;;5016657;28;20027;-83
2024/02/02 04:33:21;;;;;;;7.05;5.13;;;5.00;83.20;;;;;;5016762;28;20033;-84
2024/02/02 04:35:47;;;;;;;6.93;4.65;;;5.00;83.40;;;;;;5016692;28;20013;-83
2024/02/02 04:38:13;;;;;;;8.35;4.88;;;5.00;83.40;;;;;;5016722;28;20029;-83
2024/02/02 04:40:48;;;;;;;;;;;5.00;83.70;;;;;;5152921;27;20430;-83
2024/02/02 04:43:13;;;;;;;6.82;4.93;;;5.10;84.00;;;;;;5152471;27;19911;-84
2024/02/02 04:45:40;;;;;;;9.80;5.25;;;5.10;84.10;;;;;;5152416;27;20118;-84
2024/02/02 04:48:06;;;;;;;6.53;5.00;;;5.00;84.30;;;;;;5152676;27;20468;-84
2024/02/02 04:50:32;;;;;;;8.27;5.28;;;5.00;84.40;;;;;;5152087;27;20075;-83
2024/02/02 04:52:58;;;;;;;7.78;5.15;;;5.00;84.50;;;;;;5152350;27;20038;-83
2024/02/02 04:55:23;;;;;;;6.22;4.60;;;5.00;84.50;;;;;;5152168;27;20023;-82
2024/02/02 04:57:49;;;;;;;7.45;5.00;;;5.00;84.70;;;;;;5151979;27;20471;-83
2024/02/02 05:00:15;;;;;;;6.30;4.45;;;5.10;84.70;;;;;;5151875;27;20034;-82
2024/02/02 05:02:41;;;;;;;5.53;4.65;;;5.10;84.60;;;;;;5152134;27;20035;-83
2024/02/02 05:05:06;;;;;;;5.60;4.82;;;5.10;84.30;;;;;;5151946;27;20098;-83
2024/02/02 05:07:32;;;;;;;6.63;4.43;;;5.10;84.30;;;;;;5151741;27;20383;-83
2024/02/02 05:09:58;;;;;;;6.93;4.90;;;5.10;84.20;;;;;;5151684;27;20155;-83
2024/02/02 05:12:23;;;;;;;7.22;5.00;;;5.10;84.00;;;;;;5151838;27;20106;-82
2024/02/02 05:14:49;;;;;;;5.07;4.57;;;5.10;83.90;;;;;;5152322;27;20026;-84
2024/02/02 05:17:16;;;;;;;5.30;4.38;;;5.10;83.80;;;;;;5152329;27;20030;-84
2024/02/02 05:19:41;;;;;;;5.53;4.57;;;5.10;83.90;;;;;;5152038;27;20035;-84
2024/02/02 05:22:07;;;;;;;7.45;4.30;;;5.20;84.00;;;;;;5151888;27;20069;-83
2024/02/02 05:24:34;;;;;;;8.45;5.22;;;5.20;84.00;;;;;;5151797;27;20077;-84
2024/02/02 05:26:59;;;;;;;4.68;3.95;;;5.20;83.90;;;;;;5151696;27;20023;-84
2024/02/02 05:29:25;;;;;;;6.03;4.68;;;5.20;83.90;;;;;;5151699;27;20360;-84
2024/02/02 05:31:50;;;;;;;7.28;4.95;;;5.30;84.10;;;;;;5151780;27;20059;-84
2024/02/02 05:34:16;;;;;;;6.25;4.53;;;5.30;84.00;;;;;;5151968;27;20023;-84
2024/02/02 05:36:41;;;;;;;6.28;4.78;;;5.30;84.80;;;;;;5132890;27;20027;-84
2024/02/02 05:39:09;;;;;;;8.43;5.70;;;5.30;83.80;;;;;;5151611;27;20042;-84
2024/02/02 05:41:34;;;;;;;7.72;5.63;;;5.30;83.70;;;;;;5160627;27;20022;-84
2024/02/02 05:44:00;;;;;;;7.00;5.80;;;5.30;83.80;;;;;;5167743;27;20019;-83
2024/02/02 05:46:25;;;;;;;6.07;4.60;;;5.30;84.00;;;;;;5168468;27;20023;-82
2024/02/02 05:48:51;;;;;;;6.18;4.82;;;5.30;84.10;;;;;;5157517;27;20023;-82
2024/02/02 05:51:16;;;;;;;5.75;5.05;;;5.30;84.10;;;;;;5150054;27;20038;-83
2024/02/02 05:53:42;;;;;;;6.28;4.85;;;5.30;84.00;;;;;;5119799;27;20079;-84
2024/02/02 05:56:07;;;;;;;7.40;4.78;;;5.30;84.10;;;;;;5137603;27;20108;-85
2024/02/02 05:58:33;;;;;;;6.03;4.28;;;5.40;84.10;;;;;;5138319;27;20094;-84
2024/02/02 06:00:58;;;;;;;5.95;4.28;;;5.40;84.30;;;;;;5137402;27;20494;-83
2024/02/02 06:03:24;;;;;;;5.22;4.00;;;5.40;84.20;;;;;;5138219;27;20083;-78
2024/02/02 06:05:50;;;;;;;6.25;4.45;;;5.40;84.20;;;;;;5137428;27;20045;-82
2024/02/02 06:08:15;;;;;;;7.28;4.30;;;5.50;84.30;;;;;;5137691;27;20409;-85
2024/02/02 06:10:41;;;;;;;6.88;4.40;;;5.50;84.30;;;;;;5119101;27;20027;-83
2024/02/02 06:13:07;;;;;;;5.57;4.75;;;5.50;84.20;;;;;;5137304;27;20447;-85
2024/02/02 06:15:33;;;;;;;7.65;5.80;;;5.50;84.30;;;;;;5131226;27;20029;-82
2024/02/02 06:17:59;;;;;;;7.78;5.07;;;5.50;84.40;;;;;;5127895;27;20392;-83
2024/02/02 06:20:24;;;;;;;9.20;5.75;;;5.60;84.20;;;;;;5136823;27;20034;-83
2024/02/02 06:22:50;;;;;;;8.23;5.50;;;5.60;84.00;;;;;;5118352;27;20020;-84
2024/02/02 06:25:15;;;;;;;15.10;8.70;;;5.60;84.20;;;;;;5123081;27;20031;-85
2024/02/02 06:27:41;;;;;;;13.60;8.07;;;5.50;84.50;;;;;;5116192;28;20051;-83
2024/02/02 06:30:08;;;;;;;12.05;7.18;;;5.50;84.40;;;;;;5115909;28;20035;-83
2024/02/02 06:32:35;;;;;;;9.77;7.07;;;5.50;84.30;;;;;;5116090;28;20023;-83
2024/02/02 06:35:02;;;;;;;10.48;7.85;;;5.50;84.50;;;;;;5117060;28;20121;-83
2024/02/02 06:37:28;;;;;;;8.20;6.50;;;5.60;84.30;;;;;;5117836;28;20016;-87
2024/02/02 06:39:54;;;;;;;10.13;7.38;;;5.60;84.10;;;;;;5116600;28;20055;-86
2024/02/02 06:42:20;;;;;;;9.02;6.85;;;5.60;83.90;;;;;;5117294;28;20016;-88
2024/02/02 06:44:46;;;;;;;11.82;7.95;;;5.60;83.90;;;;;;5118154;28;20091;-87
2024/02/02 06:47:12;;;;;;;10.55;8.18;;;5.70;83.90;;;;;;5117551;28;20020;-86
2024/02/02 06:49:37;;;;;;;8.95;7.38;;;5.70;83.70;;;;;;5116647;28;20027;-86
2024/02/02 06:52:03;;;;;;;8.48;6.72;;;5.70;83.60;;;;;;5116891;28;20031;-85
2024/02/02 06:54:29;;;;;;;9.32;6.32;;;5.70;83.60;;;;;;5116732;28;20031;-86
2024/02/02 06:56:55;;;;;;;7.85;5.10;;;5.70;83.60;;;;;;5116763;28;20016;-86
2024/02/02 06:59:21;;;;;;;11.10;8.38;;;5.70;83.40;;;;;;5116318;28;20040;-85
2024/02/02 07:01:47;;;;;;;8.23;6.55;;;5.70;83.00;;;;;;5116215;28;20215;-86
2024/02/02 07:04:14;;;;;;;7.63;6.18;;;5.70;83.00;;;;;;5117538;28;20032;-86
2024/02/02 07:06:40;;;;;;;7.00;5.38;;;5.60;83.30;;;;;;5131637;28;20046;-82
2024/02/02 07:09:29;;;;;;;7.30;6.20;;;5.70;83.50;;;;;;5124169;28;20024;-85
2024/02/02 07:12:03;;;;;;;6.20;5.03;;;5.60;83.70;;;;;;5115490;28;20090;-84
2024/02/02 07:14:40;;;;;;;10.43;6.85;;;5.70;83.90;;;;;;5096670;28;20035;-82
2024/02/02 07:17:22;;;;;;;11.40;7.35;;;5.70;84.10;;;;;;5114707;28;20102;-82
2024/02/02 07:19:48;;;;;;;9.95;6.57;;;5.70;84.10;;;;;;5113549;28;20437;-84
2024/02/02 07:22:37;;;;;;;10.95;6.57;;;5.70;84.10;;;;;;5114806;28;20023;-83
2024/02/02 07:25:13;;;;;;;8.10;5.95;;;5.70;84.10;;;;;;5114871;28;20020;-86
2024/02/02 07:27:56;;;;;;;9.35;5.90;;;5.70;84.00;;;;;;5115029;28;20065;-84
2024/02/02 07:30:54;;;;;;;7.70;5.32;;;5.70;84.00;;;;;;5115200;28;20102;-82
2024/02/02 07:33:41;;;;;;;8.95;5.40;;;5.80;83.70;;;;;;5115384;28;20515;-82
2024/02/02 07:36:11;;;;;;;7.88;5.70;;;5.80;83.50;;;;;;5116298;28;20053;-85
2024/02/02 07:38:54;;;;;;;8.43;5.45;;;5.80;83.30;;;;;;5120773;28;20019;-85
2024/02/02 07:41:25;;;;;;;7.55;5.40;;;5.80;83.10;;;;;;5119890;28;20544;-83
2024/02/02 07:43:54;;;;;;;7.25;5.43;;;5.90;83.00;;;;;;5115805;28;20034;-84
2024/02/02 07:46:20;;;;;;;8.10;5.78;;;5.90;83.10;;;;;;5116679;28;20516;-84
2024/02/02 07:48:49;;;;;;;9.88;6.50;;;5.90;83.10;;;;;;5115773;28;20403;-83
2024/02/02 07:51:16;;;;;;;7.72;6.18;;;6.00;83.00;;;;;;5115390;28;20055;-84
2024/02/02 07:53:44;;;;;;;8.30;6.22;;;6.00;82.90;;;;;;5114013;28;20119;-84
2024/02/02 07:56:09;;;;;;;9.15;6.15;;;6.00;83.00;;;;;;5115451;28;20479;-83
2024/02/02 07:58:35;;;;;;;8.15;6.07;;;6.00;83.00;;;;;;5113418;28;20024;-84
2024/02/02 08:01:01;;;;;;;9.18;6.60;;;6.10;83.00;;;;;;5115121;28;20432;-82
2024/02/02 08:03:26;;;;;;;12.15;6.97;;;6.00;82.70;;;;;;5114982;28;20096;-82
2024/02/02 08:05:52;;;;;;;9.50;6.40;;;6.10;82.60;;;;;;5114445;28;20028;-83
2024/02/02 08:08:18;;;;;;;10.18;7.18;;;6.10;82.50;;;;;;5114857;28;20171;-81
2024/02/02 08:10:45;;;;;;;8.63;6.93;;;6.00;82.60;;;;;;5114815;28;20371;-83
2024/02/02 08:13:11;;;;;;;7.55;5.65;;;6.00;82.80;;;;;;5114226;28;20066;-82
2024/02/02 08:15:37;;;;;;;5.63;4.80;;;6.00;82.80;;;;;;5114404;28;20353;-83
2024/02/02 08:18:03;;;;;;;7.38;5.57;;;6.00;82.80;;;;;;5114096;28;20024;-85
2024/02/02 08:20:29;;;;;;;8.07;5.78;;;6.10;82.70;;;;;;5115124;28;20110;-82
2024/02/02 08:22:54;;;;;;;8.43;6.18;;;6.10;82.70;;;;;;5112645;28;20030;-78
2024/02/02 08:25:20;;;;;;;9.98;5.53;;;6.30;86.90;;;;;;5115977;28;20106;-87
2024/02/02 08:27:45;;;;;;;6.55;5.43;;;6.60;86.00;;;;;;5127571;28;20031;-85
2024/02/02 08:30:12;;;;;;;6.78;5.30;;;6.90;83.90;;;;;;5098172;28;20392;-80
2024/02/02 08:32:38;;;;;;;7.18;4.22;;;7.10;83.00;;;;;;5099808;28;20107;-83
2024/02/02 08:35:05;;;;;;;6.43;4.35;;;7.50;80.40;;;;;;5101905;28;20023;-81
2024/02/02 08:37:32;;;;;;;5.80;4.32;;;7.80;78.80;;;;;;5099130;28;20028;-85
2024/02/02 08:39:57;;;;;;;6.28;4.40;;;8.20;76.50;;;;;;5117570;28;20040;-83
2024/02/02 08:42:23;;;;;;;5.88;3.40;;;8.30;74.40;;;;;;5098508;28;20016;-84
2024/02/02 08:44:50;;;;;;;4.32;3.22;;;8.30;73.10;;;;;;5115784;28;20024;-84
2024/02/02 08:47:17;;;;;;;4.85;3.20;;;8.20;72.60;;;;;;5113964;28;20034;-85
2024/02/02 08:49:58;;;;;;;4.07;3.17;;;8.30;72.20;;;;;;5113435;28;20020;-83
2024/02/02 08:52:33;;;;;;;3.67;2.85;;;8.60;71.70;;;;;;5097201;28;20483;-84
2024/02/02 08:55:03;;;;;;;3.53;2.90;;;8.70;70.60;;;;;;5096656;28;20028;-81
2024/02/02 08:57:33;;;;;;;4.80;2.90;;;8.80;69.80;;;;;;5113677;28;20020;-81
2024/02/02 09:00:05;;;;;;;2.78;2.13;;;8.80;69.50;;;;;;5113599;28;20035;-80
2024/02/02 09:02:52;;;;;;;3.15;2.60;;;8.50;66.50;;;;;;5113551;28;20023;-79
2024/02/02 09:05:23;;;;;;;3.30;2.60;;;8.30;67.80;;;;;;5113924;28;20380;-80
2024/02/02 09:07:50;;;;;;;3.13;2.28;;;8.20;68.20;;;;;;5113715;28;20023;-79
2024/02/02 09:10:31;;;;;;;2.17;1.70;;;8.20;68.50;;;;;;5113277;28;20034;-79
2024/02/02 09:13:01;;;;;;;2.25;1.40;;;8.10;68.90;;;;;;5113099;28;20027;-79
2024/02/02 09:15:30;;;;;;;3.33;2.20;;;8.10;68.90;;;;;;5113014;28;20106;-79
2024/02/02 09:17:56;;;;;;;2.90;2.22;;;8.10;69.40;;;;;;5112975;28;20015;-79
2024/02/02 09:20:45;;;;;;;3.17;2.13;;;8.10;69.90;;;;;;5113155;28;20106;-79
2024/02/02 09:23:11;;;;;;;2.03;1.60;;;8.00;69.90;;;;;;5113080;28;20012;-80
2024/02/02 09:25:41;;;;;;;2.67;1.77;;;8.10;69.50;;;;;;5113820;28;20055;-78
2024/02/02 09:28:25;;;;;;;4.43;3.10;;;8.00;70.10;;;;;;5117291;28;20468;-79
2024/02/02 09:31:01;;;;;;;5.07;3.28;;;8.00;70.30;;;;;;5116899;28;20027;-74
2024/02/02 09:33:47;;;;;;;3.15;2.63;;;8.00;70.10;;;;;;5115029;28;20032;-78
2024/02/02 09:36:13;;;;;;;;;;;8.00;70.30;;;;;;5116636;28;20028;-78
2024/02/02 09:38:38;;;;;;;;;;;8.10;69.20;;;;;;5116897;28;19915;-79
2024/02/02 09:41:04;;;;;;;2.42;1.95;;;8.20;68.80;;;;;;5117354;28;19919;-78
2024/02/02 09:43:29;;;;;;;2.10;1.85;;;8.20;68.70;;;;;;5117838;28;20030;-79
2024/02/02 09:46:22;;;;;;;2.20;1.70;;;8.20;68.70;;;;;;5117235;28;20030;-79
2024/02/02 09:49:02;;;;;;;3.30;2.05;;;8.20;69.10;;;;;;5097631;28;20134;-79
2024/02/02 09:51:57;;;;;;;1.98;1.55;;;8.30;68.80;;;;;;5116463;28;20022;-78
2024/02/02 09:54:38;;;;;;;2.00;1.50;;;8.40;68.10;;;;;;5085103;28;20063;-78
2024/02/02 09:57:25;;;;;;;1.20;1.10;;;8.30;67.20;;;;;;5116855;28;20080;-79
2024/02/02 10:00:17;;;;;;;1.83;1.40;;;8.30;67.30;;;;;;5115577;28;20176;-79
2024/02/02 10:03:16;;;;;;;2.75;1.70;;;8.20;67.50;;;;;;5116863;28;20019;-79
2024/02/02 10:06:11;;;;;;;1.67;1.58;;;8.30;68.20;;;;;;5116222;28;20049;-79
2024/02/02 10:09:22;;;;;;;1.70;1.17;;;8.40;67.60;;;;;;5116318;28;20042;-79
2024/02/02 10:12:17;;;;;;;1.40;1.30;;;8.40;67.50;;;;;;5112038;28;20035;-80
2024/02/02 10:15:11;;;;;;;1.90;1.55;;;8.50;67.30;;;;;;5116215;28;20110;-79
2024/02/02 10:18:24;;;;;;;1.63;1.15;;;8.50;66.90;;;;;;5115937;28;20042;-79
2024/02/02 10:21:19;;;;;;;2.05;1.30;;;8.40;64.80;;;;;;5042967;28;20530;-80
2024/02/02 10:24:00;;;;;;;1.98;1.45;;;8.40;62.20;;;;;;5115942;28;20032;-79
2024/02/02 10:26:35;;;;;;;1.00;0.90;;;8.30;60.90;;;;;;5115877;28;20028;-78
2024/02/02 10:29:37;;;;;;;1.30;1.20;;;8.30;61.80;;;;;;5115884;28;20046;-78
2024/02/02 10:32:15;;;;;;;3.80;1.13;;;8.30;62.70;;;;;;5115624;28;20026;-78
2024/02/02 10:35:16;;;;;;;2.00;1.67;;;8.40;62.70;;;;;;5116002;28;20468;-79
2024/02/02 10:37:49;;;;;;;1.00;0.90;;;8.50;62.90;;;;;;5115173;28;20049;-78
2024/02/02 10:40:37;;;;;;;1.50;1.00;;;8.60;61.50;;;;;;5115203;28;20035;-79
2024/02/02 10:43:16;;;;;;;0.73;0.73;;;8.50;63.20;;;;;;5115873;28;20510;-80
2024/02/02 10:46:00;;;;;;;1.00;0.80;;;8.50;63.30;;;;;;5115856;28;20031;-79
2024/02/02 10:48:45;;;;;;;1.50;1.40;;;8.60;62.60;;;;;;5116061;28;20469;-79
2024/02/02 10:51:35;;;;;;;1.17;1.02;;;8.60;63.10;;;;;;5116017;28;20571;-80
2024/02/02 10:54:26;;;;;;;2.13;1.02;;;8.70;61.80;;;;;;5097392;28;20526;-77
2024/02/02 10:57:31;;;;;;;3.80;1.10;;;8.80;62.50;;;;;;5115637;28;20453;-80
2024/02/02 11:00:15;;;;;;;1.13;0.90;;;8.80;61.20;;;;;;5115572;28;20038;-80
2024/02/02 11:03:26;;;;;;;1.17;1.00;;;8.80;60.30;;;;;;5115434;28;20035;-78
2024/02/02 11:06:04;;;;;;;1.05;0.90;;;8.80;60.00;;;;;;5084061;28;20038;-79
2024/02/02 11:08:38;;;;;;;1.30;1.00;;;9.10;59.50;;;;;;5115744;28;20022;-81
2024/02/02 11:19:06;;;;;;;1.13;1.02;;;9.60;58.30;;;;;;5345394;22;20133;-79
2024/02/02 11:25:35;;;;;;;1.20;1.10;;;10.20;57.50;;;;;;5054696;28;20720;-80
2024/02/02 11:31:31;;;;;;;;;;;;;;;;;;;;;
2024/02/02 12:09:25;;;;;;;6.15;1.10;;;12.50;44.50;;;;;;5148408;23;20077;-82
2024/02/02 12:15:31;;;;;;;7.07;1.80;;;13.10;49.40;;;;;;5620930;23;20066;-79
2024/02/02 12:17:57;;;;;;;1.95;1.55;;;13.50;50.10;;;;;;4973579;28;20034;-80
2024/02/02 12:20:22;;;;;;;9.38;2.33;;;14.00;47.10;;;;;;4957001;28;20042;-78
2024/02/02 12:22:50;;;;;;;4.03;2.00;;;14.30;45.50;;;;;;4957572;28;20027;-78
2024/02/02 12:25:15;;;;;;;4.65;1.75;;;14.70;42.50;;;;;;4958020;28;20042;-78
2024/02/02 12:27:42;;;;;;;2.28;1.17;;;14.60;42.00;;;;;;4960336;28;20023;-80
2024/02/02 12:30:10;;;;;;;5.90;2.00;;;14.00;42.70;;;;;;4958090;28;20077;-76
2024/02/02 12:32:36;;;;;;;12.55;6.47;;;14.00;45.20;;;;;;4974103;28;20023;-75
2024/02/02 12:35:05;;;;;;;4.45;2.38;;;13.80;43.90;;;;;;4974224;28;20054;-74
2024/02/02 12:37:51;;;;;;;1.92;1.13;;;13.30;45.00;;;;;;4956810;28;20118;-75
2024/02/02 12:40:19;;;;;;;4.03;2.65;;;12.50;46.40;;;;;;4956421;28;20102;-75
2024/02/02 12:42:47;;;;;;;4.03;2.10;;;12.20;48.60;;;;;;4973963;28;20034;-75
2024/02/02 12:45:13;;;;;;;1.88;1.55;;;12.00;49.90;;;;;;4956667;28;20448;-75
2024/02/02 12:47:43;;;;;;;2.72;1.20;;;12.00;49.80;;;;;;4956691;28;20023;-75
2024/02/02 12:50:15;;;;;;;2.60;1.50;;;11.90;50.40;;;;;;4956878;28;20114;-76
2024/02/02 12:52:45;;;;;;;2.88;1.95;;;12.00;51.40;;;;;;4957148;28;20074;-75
2024/02/02 12:55:12;;;;;;;8.13;1.50;;;12.40;50.60;;;;;;4973793;28;20030;-75
2024/02/02 12:57:37;;;;;;;1.02;1.00;;;12.80;48.70;;;;;;4974169;28;20371;-76
2024/02/02 13:00:06;;;;;;;2.20;1.38;;;13.20;47.00;;;;;;4956657;28;20030;-76
2024/02/02 13:02:32;;;;;;;1.20;1.10;;;13.40;46.50;;;;;;4977536;28;20092;-75
2024/02/02 13:05:00;;;;;;;1.77;1.38;;;13.30;46.20;;;;;;4977669;28;20023;-75
2024/02/02 13:07:25;;;;;;;1.20;1.10;;;13.10;46.90;;;;;;4976350;28;20030;-75
2024/02/02 13:09:57;;;;;;;1.20;1.00;;;12.70;48.40;;;;;;4977593;28;20027;-75
2024/02/02 13:12:27;;;;;;;1.10;1.00;;;12.60;48.90;;;;;;4960569;28;20027;-73
2024/02/02 13:14:53;;;;;;;3.08;1.02;;;12.50;49.20;;;;;;4977528;28;20169;-74
2024/02/02 13:17:20;;;;;;;0.98;0.85;;;12.50;50.20;;;;;;4977666;28;20035;-76
2024/02/02 13:19:46;;;;;;;2.13;1.33;;;12.70;48.90;;;;;;4977836;28;20043;-75
2024/02/02 13:22:21;;;;;;;2.72;1.35;;;13.60;47.40;;;;;;4977309;28;20029;-75
2024/02/02 13:24:56;;;;;;;1.00;0.90;;;14.40;45.10;;;;;;4977376;28;20500;-75
2024/02/02 13:27:29;;;;;;;2.72;1.30;;;14.80;42.40;;;;;;4977641;28;20027;-75
2024/02/02 13:29:56;;;;;;;1.52;1.15;;;15.50;40.90;;;;;;4977451;28;20038;-75
2024/02/02 13:32:24;;;;;;;1.13;1.00;;;15.90;38.90;;;;;;4959871;28;20025;-76
2024/02/02 13:34:54;;;;;;;1.58;0.70;;;15.90;38.40;;;;;;4976992;28;20055;-75
2024/02/02 13:37:56;;;;;;;1.90;1.10;;;15.60;38.10;;;;;;4959939;28;20106;-75
2024/02/02 13:40:15;;;;;;;1.05;0.95;;;15.20;38.90;;;;;;4971676;28;20068;-76
2024/02/02 13:42:41;;;;;;;1.13;0.90;;;15.10;39.10;;;;;;4977140;28;20067;-75
2024/02/02 13:45:11;;;;;;;2.65;0.80;;;14.90;40.60;;;;;;4977322;28;20030;-76
2024/02/02 13:47:37;;;;;;;2.20;0.85;;;14.70;40.60;;;;;;4959615;28;20047;-75
2024/02/02 13:50:12;;;;;;;1.73;0.80;;;14.20;41.10;;;;;;4977591;28;20069;-75
2024/02/02 13:52:37;;;;;;;2.40;0.60;;;13.90;42.70;;;;;;4977049;28;20031;-75
2024/02/02 13:55:04;;;;;;;2.20;0.70;;;13.80;42.40;;;;;;4976809;28;20030;-76
2024/02/02 13:57:30;;;;;;;0.80;0.80;;;13.90;41.20;;;;;;4976852;28;20066;-76
2024/02/02 13:59:56;;;;;;;1.90;0.40;;;13.90;40.70;;;;;;4959276;28;20034;-75
2024/02/02 14:02:24;;;;;;;0.95;0.52;;;13.40;39.30;;;;;;4976862;28;20031;-76
2024/02/02 14:04:50;;;;;;;1.33;0.60;;;13.70;39.40;;;;;;4976576;28;20161;-76